Herman, Minnesota
Current Conditions -  °F | °C
As of 5:16 AM on Tuesday 21 Oct 2014 (Local Time) from KY63 Reporting Station
Clear Clear  
Wind Chill: 35°   Ceiling: Unl
Heat Index: 41°   Visibility: 10mi
Dew Point: 37°   Wind: 9mph
Humidity: 86%   Direction: 120°ESE
Pressure: 30.1"   Gusts: NA
Location:  45.81°N, 96.14°W
Report Text: KY63 211016Z AUTO 12008KT 10SM CLR 05/03 A3010 RMK AO2 T00490028
Loading
Personal Weather Stations






























Interactive Weather Map
Tropical Storm Tracking
New forecast layout! Learn more

10-Day Weather Forecast

Advertisements
Track Severe Weather on mobile